createdAt,value
2018-09-27T00:00:41.837Z,0.00
2018-09-27T00:01:42.133Z,0.00
2018-09-27T00:02:41.894Z,0.00
2018-09-27T00:03:41.903Z,0.00
2018-09-27T00:04:41.918Z,0.00
2018-09-27T00:05:41.944Z,0.00
2018-09-27T00:06:41.951Z,0.00
2018-09-27T00:07:41.973Z,0.00
2018-09-27T00:08:41.997Z,0.00
2018-09-27T00:09:42.010Z,0.00
2018-09-27T00:10:42.135Z,0.00
2018-09-27T00:11:42.052Z,0.00
2018-09-27T00:12:42.066Z,0.00
2018-09-27T00:13:42.090Z,0.00
2018-09-27T00:14:42.120Z,0.00
2018-09-27T00:15:42.123Z,0.00
2018-09-27T00:16:42.137Z,0.00
2018-09-27T00:17:42.160Z,0.00
2018-09-27T00:18:42.174Z,0.00
2018-09-27T00:19:42.274Z,0.00
2018-09-27T00:20:42.216Z,0.00
2018-09-27T00:21:42.335Z,0.00
2018-09-27T00:22:42.256Z,0.00
2018-09-27T00:23:42.267Z,0.00
2018-09-27T00:24:42.290Z,0.00
2018-09-27T00:25:42.303Z,0.00
2018-09-27T00:26:42.322Z,0.00
2018-09-27T00:27:42.347Z,0.00
2018-09-27T00:28:42.361Z,0.00
2018-09-27T00:29:42.386Z,0.00
2018-09-27T00:30:42.406Z,0.00
2018-09-27T00:31:42.414Z,0.00
2018-09-27T00:32:42.435Z,0.00
2018-09-27T00:33:42.459Z,0.00
2018-09-27T00:34:42.599Z,0.00
2018-09-27T00:35:42.490Z,0.00
2018-09-27T00:36:42.513Z,0.00
2018-09-27T00:37:42.541Z,0.00
2018-09-27T00:38:42.543Z,0.00
2018-09-27T00:39:42.565Z,0.00
2018-09-27T00:40:42.573Z,0.00
2018-09-27T00:41:42.609Z,0.00
2018-09-27T00:42:42.622Z,0.00
2018-09-27T00:43:42.652Z,0.00
2018-09-27T00:44:42.658Z,0.00
2018-09-27T00:45:42.674Z,0.00
2018-09-27T00:46:42.696Z,0.00
2018-09-27T00:47:42.736Z,0.00
2018-09-27T00:48:42.726Z,0.00
2018-09-27T00:49:42.789Z,0.00
2018-09-27T00:50:42.767Z,0.00
2018-09-27T00:51:42.837Z,0.00
2018-09-27T00:52:42.803Z,0.00
2018-09-27T00:53:42.822Z,0.00
2018-09-27T00:54:42.844Z,0.00
2018-09-27T00:55:42.857Z,0.00
2018-09-27T00:56:42.876Z,0.00
2018-09-27T00:57:42.909Z,0.00
2018-09-27T00:58:42.912Z,0.00
2018-09-27T00:59:42.935Z,0.00
2018-09-27T01:00:42.951Z,0.00
2018-09-27T01:01:42.964Z,0.00
2018-09-27T01:02:43.000Z,0.00
2018-09-27T01:03:43.003Z,0.00
2018-09-27T01:04:43.025Z,0.00
2018-09-27T01:05:43.038Z,0.00
2018-09-27T01:06:43.062Z,0.00
2018-09-27T01:07:43.082Z,0.00
2018-09-27T01:08:43.093Z,0.00
2018-09-27T01:09:43.131Z,0.00
2018-09-27T01:10:43.135Z,0.00
2018-09-27T01:11:43.161Z,0.00
2018-09-27T01:12:43.168Z,0.00
2018-09-27T01:13:43.194Z,0.00
2018-09-27T01:14:43.207Z,0.00
2018-09-27T01:15:43.224Z,0.00
2018-09-27T01:16:43.235Z,0.00
2018-09-27T01:17:43.265Z,0.00
2018-09-27T01:18:43.278Z,0.00
2018-09-27T01:19:43.310Z,0.00
2018-09-27T01:20:43.320Z,0.00
2018-09-27T01:21:43.332Z,0.00
2018-09-27T01:22:43.352Z,0.00
2018-09-27T01:23:43.371Z,0.00
2018-09-27T01:24:43.390Z,0.00
2018-09-27T01:25:43.405Z,0.00
2018-09-27T01:26:43.427Z,0.00
2018-09-27T01:27:43.444Z,0.00
2018-09-27T01:28:43.455Z,0.00
2018-09-27T01:29:43.489Z,0.00
2018-09-27T01:30:43.566Z,0.00
2018-09-27T01:31:43.508Z,0.00
2018-09-27T01:32:43.535Z,0.00
2018-09-27T01:33:43.552Z,0.00
2018-09-27T01:34:43.580Z,0.00
2018-09-27T01:35:43.583Z,0.00
2018-09-27T01:36:43.607Z,0.00
2018-09-27T01:37:43.624Z,0.00
2018-09-27T01:38:43.647Z,0.00
2018-09-27T01:39:43.658Z,0.00
2018-09-27T01:40:43.675Z,0.00
2018-09-27T01:41:43.801Z,0.00
2018-09-27T01:42:43.727Z,0.00
2018-09-27T01:43:43.833Z,0.00
2018-09-27T01:44:43.756Z,0.00
2018-09-27T01:45:43.772Z,0.00
2018-09-27T01:46:43.800Z,0.00
2018-09-27T01:47:43.808Z,0.00
2018-09-27T01:48:43.850Z,0.00
2018-09-27T01:49:43.855Z,0.00
2018-09-27T01:50:43.862Z,0.00
2018-09-27T01:51:43.877Z,0.00
2018-09-27T01:52:43.896Z,0.00
2018-09-27T01:53:43.925Z,0.00
2018-09-27T01:54:43.995Z,0.00
2018-09-27T01:55:43.954Z,0.00
2018-09-27T01:56:43.968Z,0.00
2018-09-27T01:57:43.990Z,0.00
2018-09-27T01:58:44.012Z,0.00
2018-09-27T01:59:44.026Z,0.00
2018-09-27T02:00:44.057Z,0.00
2018-09-27T02:01:44.059Z,0.00
2018-09-27T02:02:44.080Z,0.00
2018-09-27T02:03:44.087Z,0.00
2018-09-27T02:04:44.112Z,0.00
2018-09-27T02:05:44.124Z,0.00
2018-09-27T02:06:44.153Z,0.00
2018-09-27T02:07:44.162Z,0.00
2018-09-27T02:08:44.178Z,0.00
2018-09-27T02:09:44.212Z,0.00
2018-09-27T02:10:44.225Z,0.00
2018-09-27T02:11:44.303Z,0.00
2018-09-27T02:12:44.259Z,0.00
2018-09-27T02:13:44.280Z,0.00
2018-09-27T02:14:44.298Z,0.00
2018-09-27T02:15:44.315Z,0.00
2018-09-27T02:16:44.332Z,0.00
2018-09-27T02:17:44.343Z,0.00
2018-09-27T02:18:44.372Z,0.00
2018-09-27T02:19:44.382Z,0.00
2018-09-27T02:20:44.404Z,0.00
2018-09-27T02:21:44.420Z,0.00
2018-09-27T02:22:44.511Z,0.00
2018-09-27T02:23:44.455Z,0.00
2018-09-27T02:24:44.478Z,0.00
2018-09-27T02:25:44.484Z,0.00
2018-09-27T02:26:44.507Z,0.00
2018-09-27T02:27:44.527Z,0.00
2018-09-27T02:28:44.561Z,0.00
2018-09-27T02:29:44.572Z,0.00
2018-09-27T02:30:44.577Z,0.00
2018-09-27T02:31:44.600Z,0.00
2018-09-27T02:32:44.618Z,0.00
2018-09-27T02:33:44.641Z,0.00
2018-09-27T02:34:44.662Z,0.00
2018-09-27T02:35:44.684Z,0.00
2018-09-27T02:36:44.691Z,0.00
2018-09-27T02:37:44.706Z,0.00
2018-09-27T02:38:44.718Z,0.00
2018-09-27T02:39:44.765Z,0.00
2018-09-27T02:40:44.759Z,0.00
2018-09-27T02:41:44.787Z,0.00
2018-09-27T02:42:44.795Z,0.00
2018-09-27T02:43:44.813Z,0.00
2018-09-27T02:44:44.850Z,0.00
2018-09-27T02:45:44.840Z,0.00
2018-09-27T02:46:44.859Z,0.00
2018-09-27T02:47:44.880Z,0.00
2018-09-27T02:48:44.897Z,0.00
2018-09-27T02:49:44.921Z,0.00
2018-09-27T02:50:45.004Z,0.00
2018-09-27T02:51:44.959Z,0.00
2018-09-27T02:52:44.965Z,0.00
2018-09-27T02:53:44.995Z,0.00
2018-09-27T02:54:45.010Z,0.00
2018-09-27T02:55:45.023Z,0.00
2018-09-27T02:56:45.042Z,0.00
2018-09-27T02:57:45.065Z,0.00
2018-09-27T02:58:45.078Z,0.00
2018-09-27T02:59:45.102Z,0.00
2018-09-27T03:00:45.115Z,0.00
2018-09-27T03:01:45.133Z,0.00
2018-09-27T03:02:45.146Z,0.00
2018-09-27T03:03:45.176Z,0.00
2018-09-27T03:04:45.186Z,0.00
2018-09-27T03:05:45.202Z,0.00
2018-09-27T03:06:45.225Z,0.00
2018-09-27T03:07:45.235Z,0.00
2018-09-27T03:08:45.259Z,0.00
2018-09-27T03:09:45.279Z,0.00
2018-09-27T03:10:45.294Z,0.00
2018-09-27T03:11:45.311Z,0.00
2018-09-27T03:12:45.333Z,0.00
2018-09-27T03:13:45.394Z,0.00
2018-09-27T03:14:45.369Z,0.00
2018-09-27T03:15:45.391Z,0.00
2018-09-27T03:16:45.401Z,0.00
2018-09-27T03:17:45.418Z,0.00
2018-09-27T03:18:45.444Z,0.00
2018-09-27T03:19:45.453Z,0.00
2018-09-27T03:20:45.488Z,0.00
2018-09-27T03:21:45.500Z,0.00
2018-09-27T03:22:45.509Z,0.00
2018-09-27T03:23:45.535Z,0.00
2018-09-27T03:24:45.540Z,0.00
2018-09-27T03:25:45.561Z,0.00
2018-09-27T03:26:45.582Z,0.00
2018-09-27T03:27:45.589Z,0.00
2018-09-27T03:28:45.618Z,0.00
2018-09-27T03:29:45.628Z,0.00
2018-09-27T03:30:45.648Z,0.00
2018-09-27T03:31:45.760Z,0.00
2018-09-27T03:32:45.679Z,0.00
2018-09-27T03:33:45.701Z,0.00
2018-09-27T03:34:45.714Z,0.00
2018-09-27T03:35:45.732Z,0.00
2018-09-27T03:36:45.758Z,0.00
2018-09-27T03:37:45.771Z,0.00
2018-09-27T03:38:45.797Z,0.00
2018-09-27T03:39:45.865Z,0.00
2018-09-27T03:40:45.823Z,0.00
2018-09-27T03:41:45.850Z,0.00
2018-09-27T03:42:45.855Z,0.00
2018-09-27T03:43:45.874Z,0.00
2018-09-27T03:44:45.910Z,0.00
2018-09-27T03:45:45.914Z,0.00
2018-09-27T03:46:45.926Z,0.00
2018-09-27T03:47:45.947Z,0.00
2018-09-27T03:48:46.011Z,0.00
2018-09-27T03:49:45.982Z,0.00
2018-09-27T03:50:46.002Z,0.00
2018-09-27T03:51:46.016Z,0.00
2018-09-27T03:52:46.039Z,0.00
2018-09-27T03:53:46.060Z,0.00
2018-09-27T03:54:46.086Z,0.00
2018-09-27T03:55:46.093Z,0.00
2018-09-27T03:56:46.108Z,0.00
2018-09-27T03:57:46.124Z,0.00
2018-09-27T03:58:46.135Z,0.00
2018-09-27T03:59:46.271Z,0.00
2018-09-27T04:00:46.170Z,0.00
2018-09-27T04:01:46.202Z,0.00
2018-09-27T04:02:46.212Z,0.00
2018-09-27T04:03:46.237Z,0.00
2018-09-27T04:04:46.247Z,0.00
2018-09-27T04:05:46.268Z,0.00
2018-09-27T04:06:46.280Z,0.00
2018-09-27T04:07:46.301Z,0.00
2018-09-27T04:08:46.314Z,0.00
2018-09-27T04:09:46.332Z,0.00
2018-09-27T04:10:46.429Z,0.00
2018-09-27T04:11:46.377Z,0.00
2018-09-27T04:12:46.498Z,0.00
2018-09-27T04:13:46.408Z,0.00
2018-09-27T04:14:46.432Z,0.00
2018-09-27T04:15:46.489Z,0.00
2018-09-27T04:16:46.460Z,0.00
2018-09-27T04:17:46.479Z,0.00
2018-09-27T04:18:46.506Z,0.00
2018-09-27T04:19:46.511Z,0.00
2018-09-27T04:20:46.532Z,0.00
2018-09-27T04:21:46.578Z,0.00
2018-09-27T04:22:46.573Z,0.00
2018-09-27T04:23:46.572Z,0.00
2018-09-27T04:24:46.604Z,0.00
2018-09-27T04:25:46.619Z,0.00
2018-09-27T04:26:46.636Z,0.00
2018-09-27T04:27:46.762Z,0.00
2018-09-27T04:28:46.676Z,0.00
2018-09-27T04:29:46.684Z,0.00
2018-09-27T04:30:46.700Z,0.00
2018-09-27T04:31:46.716Z,0.00
2018-09-27T04:32:46.743Z,0.00
2018-09-27T04:33:46.782Z,0.00
2018-09-27T04:34:46.774Z,0.00
2018-09-27T04:35:46.784Z,0.00
2018-09-27T04:36:46.815Z,0.00
2018-09-27T04:37:46.830Z,0.00
2018-09-27T04:38:46.861Z,0.00
2018-09-27T04:39:46.914Z,0.00
2018-09-27T04:40:46.934Z,0.00
2018-09-27T04:41:46.910Z,0.00
2018-09-27T04:42:46.915Z,0.00
2018-09-27T04:43:46.947Z,0.00
2018-09-27T04:44:46.951Z,0.00
2018-09-27T04:45:46.988Z,0.00
2018-09-27T04:46:46.999Z,0.00
2018-09-27T04:47:47.003Z,0.00
2018-09-27T04:48:47.022Z,0.00
2018-09-27T04:49:47.031Z,0.00
2018-09-27T04:50:47.067Z,0.00
2018-09-27T04:51:47.148Z,0.00
2018-09-27T04:52:47.088Z,0.00
2018-09-27T04:53:47.101Z,0.00
2018-09-27T04:54:47.125Z,0.00
2018-09-27T04:55:47.159Z,0.00
2018-09-27T04:56:47.156Z,0.00
2018-09-27T04:57:47.204Z,0.00
2018-09-27T04:58:47.199Z,0.00
2018-09-27T04:59:47.211Z,0.00
2018-09-27T05:00:47.232Z,0.00
2018-09-27T05:01:47.249Z,0.00
2018-09-27T05:02:47.260Z,0.00
2018-09-27T05:03:47.340Z,0.00
2018-09-27T05:04:47.294Z,0.00
2018-09-27T05:05:47.312Z,4.00
2018-09-27T05:06:47.328Z,4.00
2018-09-27T05:07:47.345Z,0.00
2018-09-27T05:08:47.424Z,0.00
2018-09-27T05:09:47.386Z,0.00
2018-09-27T05:10:47.413Z,4.00
2018-09-27T05:11:47.432Z,4.00
2018-09-27T05:12:47.442Z,0.00
2018-09-27T05:13:47.463Z,4.00
2018-09-27T05:14:47.473Z,4.00
2018-09-27T05:15:47.542Z,4.00
2018-09-27T05:16:47.526Z,4.00
2018-09-27T05:17:47.523Z,4.00
2018-09-27T05:18:47.543Z,8.00
2018-09-27T05:19:47.610Z,4.00
2018-09-27T05:20:47.572Z,4.00
2018-09-27T05:21:47.597Z,8.00
2018-09-27T05:22:47.604Z,4.00
2018-09-27T05:23:47.623Z,8.00
2018-09-27T05:24:47.639Z,12.00
2018-09-27T05:25:47.680Z,8.00
2018-09-27T05:26:47.679Z,12.00
2018-09-27T05:27:47.694Z,12.00
2018-09-27T05:28:47.711Z,12.00
2018-09-27T05:29:47.727Z,12.00
2018-09-27T05:30:47.752Z,16.00
2018-09-27T05:31:47.766Z,12.00
2018-09-27T05:32:47.840Z,16.00
2018-09-27T05:33:47.807Z,12.00
2018-09-27T05:34:47.811Z,16.00
2018-09-27T05:35:47.839Z,20.00
2018-09-27T05:36:47.860Z,16.00
2018-09-27T05:37:47.869Z,20.00
2018-09-27T05:38:47.886Z,20.00
2018-09-27T05:39:47.912Z,20.00
2018-09-27T05:40:47.923Z,24.00
2018-09-27T05:41:47.942Z,20.00
2018-09-27T05:42:47.955Z,24.00
2018-09-27T05:43:47.975Z,20.00
2018-09-27T05:44:48.048Z,24.00
2018-09-27T05:45:48.012Z,28.00
2018-09-27T05:46:48.023Z,24.00
2018-09-27T05:47:48.077Z,28.00
2018-09-27T05:48:48.051Z,28.00
2018-09-27T05:49:48.082Z,28.00
2018-09-27T05:50:48.091Z,28.00
2018-09-27T05:51:48.129Z,28.00
2018-09-27T05:52:48.134Z,32.00
2018-09-27T05:53:48.168Z,32.00
2018-09-27T05:54:48.161Z,32.00
2018-09-27T05:55:48.195Z,36.00
2018-09-27T05:56:48.193Z,36.00
2018-09-27T05:57:48.209Z,36.00
2018-09-27T05:58:48.253Z,36.00
2018-09-27T05:59:48.264Z,36.00
2018-09-27T06:00:48.431Z,36.00
2018-09-27T06:01:48.355Z,40.00
2018-09-27T06:02:48.302Z,40.00
2018-09-27T06:03:48.313Z,44.00
2018-09-27T06:04:48.403Z,40.00
2018-09-27T06:05:48.360Z,40.00
2018-09-27T06:06:48.367Z,44.00
2018-09-27T06:07:48.430Z,44.00
2018-09-27T06:08:48.412Z,44.00
2018-09-27T06:09:48.427Z,48.00
2018-09-27T06:10:48.447Z,48.00
2018-09-27T06:11:48.456Z,48.00
2018-09-27T06:12:48.463Z,52.00
2018-09-27T06:13:48.483Z,48.00
2018-09-27T06:14:48.509Z,52.00
2018-09-27T06:15:48.589Z,52.00
2018-09-27T06:16:48.555Z,56.00
2018-09-27T06:17:48.561Z,56.00
2018-09-27T06:18:48.572Z,60.00
2018-09-27T06:19:48.658Z,60.00
2018-09-27T06:20:48.603Z,64.00
2018-09-27T06:21:48.630Z,64.00
2018-09-27T06:22:48.677Z,68.00
2018-09-27T06:23:48.652Z,72.00
2018-09-27T06:24:48.676Z,72.00
2018-09-27T06:25:48.693Z,76.00
2018-09-27T06:26:48.718Z,76.00
2018-09-27T06:27:48.731Z,84.00
2018-09-27T06:28:48.792Z,100.00
2018-09-27T06:29:48.772Z,132.00
2018-09-27T06:30:48.779Z,180.00
2018-09-27T06:31:48.813Z,228.00
2018-09-27T06:32:48.831Z,252.00
2018-09-27T06:33:48.831Z,260.00
2018-09-27T06:34:48.871Z,264.00
2018-09-27T06:35:48.869Z,264.00
2018-09-27T06:36:48.887Z,248.00
2018-09-27T06:37:48.906Z,224.00
2018-09-27T06:38:48.921Z,188.00
2018-09-27T06:39:48.938Z,172.00
2018-09-27T06:40:48.967Z,156.00
2018-09-27T06:41:48.968Z,132.00
2018-09-27T06:42:49.038Z,112.00
2018-09-27T06:43:49.011Z,100.00
2018-09-27T06:44:49.031Z,96.00
2018-09-27T06:45:49.059Z,96.00
2018-09-27T06:46:49.049Z,96.00
2018-09-27T06:47:49.077Z,100.00
2018-09-27T06:48:49.166Z,96.00
2018-09-27T06:49:49.109Z,100.00
2018-09-27T06:50:49.128Z,104.00
2018-09-27T06:51:49.145Z,108.00
2018-09-27T06:52:49.174Z,112.00
2018-09-27T06:53:49.179Z,112.00
2018-09-27T06:54:50.095Z,116.00
2018-09-27T06:55:50.182Z,116.00
2018-09-27T06:56:50.034Z,120.00
2018-09-27T06:57:49.256Z,124.00
2018-09-27T06:58:49.270Z,128.00
2018-09-27T06:59:49.284Z,132.00
2018-09-27T07:00:49.356Z,136.00
2018-09-27T07:01:50.029Z,140.00
2018-09-27T07:02:49.338Z,136.00
2018-09-27T07:03:49.380Z,132.00
2018-09-27T07:04:49.380Z,136.00
2018-09-27T07:05:49.390Z,136.00
2018-09-27T07:06:49.405Z,144.00
2018-09-27T07:07:49.425Z,164.00
2018-09-27T07:08:49.438Z,168.00
2018-09-27T07:09:49.479Z,160.00
2018-09-27T07:10:49.474Z,156.00
2018-09-27T07:11:49.564Z,156.00
2018-09-27T07:12:49.548Z,156.00
2018-09-27T07:13:50.033Z,156.00
2018-09-27T07:14:49.549Z,160.00
2018-09-27T07:15:49.569Z,160.00
2018-09-27T07:16:49.575Z,160.00
2018-09-27T07:17:49.593Z,168.00
2018-09-27T07:18:49.622Z,184.00
2018-09-27T07:19:49.644Z,220.00
2018-09-27T07:20:49.738Z,280.00
2018-09-27T07:21:49.673Z,368.00
2018-09-27T07:22:50.547Z,476.00
2018-09-27T07:23:49.701Z,704.00
2018-09-27T07:24:49.761Z,860.00
2018-09-27T07:25:49.737Z,984.00
2018-09-27T07:26:49.951Z,1156.00
2018-09-27T07:27:49.775Z,1104.00
2018-09-27T07:28:49.798Z,980.00
2018-09-27T07:29:49.816Z,924.00
2018-09-27T07:30:49.834Z,956.00
2018-09-27T07:31:49.852Z,1000.00
2018-09-27T07:32:49.867Z,956.00
2018-09-27T07:33:49.890Z,828.00
2018-09-27T07:34:49.902Z,716.00
2018-09-27T07:35:49.914Z,668.00
2018-09-27T07:36:49.930Z,616.00
2018-09-27T07:37:49.963Z,640.00
2018-09-27T07:38:49.972Z,852.00
2018-09-27T07:39:50.011Z,1032.00
2018-09-27T07:40:50.544Z,752.00
2018-09-27T07:41:50.027Z,608.00
2018-09-27T07:42:50.142Z,476.00
2018-09-27T07:43:50.062Z,368.00
2018-09-27T07:44:50.086Z,308.00
2018-09-27T07:45:50.100Z,276.00
2018-09-27T07:46:50.114Z,260.00
2018-09-27T07:47:50.131Z,248.00
2018-09-27T07:48:50.154Z,240.00
2018-09-27T07:49:50.167Z,244.00
2018-09-27T07:50:50.202Z,256.00
2018-09-27T07:51:50.206Z,272.00
2018-09-27T07:52:50.231Z,288.00
2018-09-27T07:53:50.245Z,300.00
2018-09-27T07:54:50.287Z,324.00
2018-09-27T07:55:50.283Z,356.00
2018-09-27T07:56:50.304Z,392.00
2018-09-27T07:57:50.331Z,476.00
2018-09-27T07:58:50.340Z,668.00
2018-09-27T07:59:50.351Z,496.00
2018-09-27T08:00:50.374Z,336.00
2018-09-27T08:01:50.397Z,292.00
2018-09-27T08:02:50.528Z,280.00
2018-09-27T08:03:50.434Z,296.00
2018-09-27T08:04:50.455Z,328.00
2018-09-27T08:05:50.478Z,348.00
2018-09-27T08:06:50.483Z,308.00
2018-09-27T08:07:50.501Z,288.00
2018-09-27T08:08:50.536Z,276.00
2018-09-27T08:09:50.537Z,272.00
2018-09-27T08:10:50.560Z,272.00
2018-09-27T08:11:50.621Z,268.00
2018-09-27T08:12:50.593Z,264.00
2018-09-27T08:13:51.553Z,268.00
2018-09-27T08:14:50.652Z,280.00
2018-09-27T08:15:50.648Z,296.00
2018-09-27T08:16:50.920Z,316.00
2018-09-27T08:17:50.688Z,356.00
2018-09-27T08:18:50.708Z,376.00
2018-09-27T08:19:50.728Z,372.00
2018-09-27T08:20:50.816Z,408.00
2018-09-27T08:21:50.757Z,440.00
2018-09-27T08:22:50.779Z,720.00
2018-09-27T08:23:50.796Z,988.00
2018-09-27T08:24:50.820Z,1080.00
2018-09-27T08:25:50.829Z,1024.00
2018-09-27T08:26:50.855Z,1012.00
2018-09-27T08:27:50.884Z,724.00
2018-09-27T08:28:51.552Z,584.00
2018-09-27T08:29:51.031Z,664.00
2018-09-27T08:30:50.978Z,720.00
2018-09-27T08:31:50.948Z,624.00
2018-09-27T08:32:50.967Z,532.00
2018-09-27T08:33:51.062Z,568.00
2018-09-27T08:34:51.011Z,720.00
2018-09-27T08:35:51.018Z,796.00
2018-09-27T08:36:51.050Z,672.00
2018-09-27T08:37:51.054Z,524.00
2018-09-27T08:38:51.146Z,432.00
2018-09-27T08:39:51.100Z,372.00
2018-09-27T08:40:51.120Z,344.00
2018-09-27T08:41:51.133Z,332.00
2018-09-27T08:42:51.160Z,352.00
2018-09-27T08:43:51.176Z,344.00
2018-09-27T08:44:51.423Z,324.00
2018-09-27T08:45:51.301Z,312.00
2018-09-27T08:46:51.316Z,300.00
2018-09-27T08:47:51.261Z,296.00
2018-09-27T08:48:51.262Z,300.00
2018-09-27T08:49:51.288Z,312.00
2018-09-27T08:50:51.305Z,316.00
2018-09-27T08:51:51.320Z,316.00
2018-09-27T08:52:51.343Z,320.00
2018-09-27T08:53:51.365Z,344.00
2018-09-27T08:54:51.381Z,332.00
2018-09-27T08:55:51.488Z,348.00
2018-09-27T08:56:51.426Z,376.00
2018-09-27T08:57:51.454Z,368.00
2018-09-27T08:58:51.453Z,364.00
2018-09-27T08:59:51.494Z,348.00
2018-09-27T09:00:51.503Z,364.00
2018-09-27T09:01:51.518Z,416.00
2018-09-27T09:02:51.541Z,508.00
2018-09-27T09:03:51.595Z,600.00
2018-09-27T09:04:51.568Z,632.00
2018-09-27T09:05:51.598Z,580.00
2018-09-27T09:06:51.620Z,584.00
2018-09-27T09:07:51.629Z,664.00
2018-09-27T09:08:51.647Z,816.00
2018-09-27T09:09:51.668Z,952.00
2018-09-27T09:10:51.685Z,932.00
2018-09-27T09:11:51.706Z,868.00
2018-09-27T09:12:51.725Z,848.00
2018-09-27T09:13:51.754Z,804.00
2018-09-27T09:14:51.804Z,824.00
2018-09-27T09:15:51.779Z,836.00
2018-09-27T09:16:51.795Z,836.00
2018-09-27T09:17:51.814Z,840.00
2018-09-27T09:18:51.843Z,848.00
2018-09-27T09:19:51.853Z,816.00
2018-09-27T09:20:51.878Z,756.00
2018-09-27T09:21:51.889Z,744.00
2018-09-27T09:22:51.920Z,788.00
2018-09-27T09:23:51.933Z,836.00
2018-09-27T09:24:51.957Z,788.00
2018-09-27T09:25:52.103Z,724.00
2018-09-27T09:26:51.993Z,736.00
2018-09-27T09:27:52.011Z,728.00
2018-09-27T09:28:52.071Z,732.00
2018-09-27T09:29:52.109Z,700.00
2018-09-27T09:30:52.069Z,664.00
2018-09-27T09:31:52.100Z,612.00
2018-09-27T09:32:52.124Z,564.00
2018-09-27T09:33:52.130Z,544.00
2018-09-27T09:34:52.152Z,504.00
2018-09-27T09:35:52.211Z,504.00
2018-09-27T09:36:52.247Z,496.00
2018-09-27T09:37:52.201Z,464.00
2018-09-27T09:38:52.236Z,452.00
2018-09-27T09:39:52.251Z,432.00
2018-09-27T09:40:52.266Z,408.00
2018-09-27T09:41:52.295Z,392.00
2018-09-27T09:42:52.301Z,388.00
2018-09-27T09:43:52.320Z,420.00
2018-09-27T09:44:52.349Z,452.00
2018-09-27T09:45:52.367Z,472.00
2018-09-27T09:46:52.381Z,480.00
2018-09-27T09:47:52.407Z,500.00
2018-09-27T09:48:52.415Z,540.00
2018-09-27T09:49:52.537Z,600.00
2018-09-27T09:50:52.474Z,556.00
2018-09-27T09:51:52.506Z,476.00
2018-09-27T09:52:52.506Z,416.00
2018-09-27T09:53:52.552Z,380.00
2018-09-27T09:54:52.538Z,368.00
2018-09-27T09:55:52.567Z,380.00
2018-09-27T09:56:52.603Z,388.00
2018-09-27T09:57:52.598Z,404.00
2018-09-27T09:58:52.647Z,404.00
2018-09-27T09:59:52.642Z,396.00
2018-09-27T10:00:52.656Z,360.00
2018-09-27T10:01:52.668Z,344.00
2018-09-27T10:02:52.703Z,348.00
2018-09-27T10:03:52.707Z,336.00
2018-09-27T10:04:52.733Z,340.00
2018-09-27T10:05:52.752Z,340.00
2018-09-27T10:06:52.786Z,336.00
2018-09-27T10:07:52.791Z,340.00
2018-09-27T10:08:52.820Z,356.00
2018-09-27T10:09:52.837Z,396.00
2018-09-27T10:10:52.848Z,412.00
2018-09-27T10:11:52.868Z,444.00
2018-09-27T10:12:52.892Z,424.00
2018-09-27T10:13:52.904Z,396.00
2018-09-27T10:14:52.934Z,376.00
2018-09-27T10:15:52.949Z,372.00
2018-09-27T10:16:52.984Z,380.00
2018-09-27T10:17:53.013Z,416.00
2018-09-27T10:18:53.000Z,456.00
2018-09-27T10:19:53.034Z,464.00
2018-09-27T10:20:53.049Z,416.00
2018-09-27T10:21:53.087Z,400.00
2018-09-27T10:22:53.088Z,384.00
2018-09-27T10:23:53.119Z,392.00
2018-09-27T10:24:53.133Z,404.00
2018-09-27T10:25:53.144Z,416.00
2018-09-27T10:26:53.173Z,412.00
2018-09-27T10:27:53.183Z,388.00
2018-09-27T10:28:53.260Z,384.00
2018-09-27T10:29:53.225Z,384.00
2018-09-27T10:30:53.240Z,404.00
2018-09-27T10:31:53.262Z,420.00
2018-09-27T10:32:53.303Z,432.00
2018-09-27T10:33:53.309Z,428.00
2018-09-27T10:34:53.328Z,436.00
2018-09-27T10:35:53.343Z,428.00
2018-09-27T10:36:53.368Z,388.00
2018-09-27T10:37:53.383Z,372.00
2018-09-27T10:38:53.405Z,400.00
2018-09-27T10:39:53.415Z,420.00
2018-09-27T10:40:53.452Z,412.00
2018-09-27T10:41:53.469Z,396.00
2018-09-27T10:42:53.481Z,400.00
2018-09-27T10:43:53.499Z,412.00
2018-09-27T10:44:53.589Z,420.00
2018-09-27T10:45:53.579Z,392.00
2018-09-27T10:46:53.563Z,408.00
2018-09-27T10:47:53.583Z,388.00
2018-09-27T10:48:53.616Z,388.00
2018-09-27T10:49:53.622Z,404.00
2018-09-27T10:50:53.650Z,408.00
2018-09-27T10:51:53.669Z,436.00
2018-09-27T10:52:53.775Z,460.00
2018-09-27T10:53:53.703Z,504.00
2018-09-27T10:54:53.721Z,560.00
2018-09-27T10:55:53.745Z,616.00
2018-09-27T10:56:53.774Z,692.00
2018-09-27T10:57:53.784Z,776.00
2018-09-27T10:58:53.803Z,868.00
2018-09-27T10:59:53.825Z,1072.00
2018-09-27T11:00:53.850Z,1232.00
2018-09-27T11:01:53.889Z,1400.00
2018-09-27T11:02:53.889Z,1768.00
2018-09-27T11:03:53.924Z,2120.00
2018-09-27T11:04:53.934Z,2468.00
2018-09-27T11:05:53.960Z,2820.00
2018-09-27T11:06:53.968Z,3100.00
2018-09-27T11:07:53.992Z,3448.00
2018-09-27T11:08:54.002Z,3788.00
2018-09-27T11:09:54.075Z,3920.00
2018-09-27T11:10:54.107Z,4060.00
2018-09-27T11:11:54.068Z,3936.00
2018-09-27T11:12:54.090Z,3664.00
2018-09-27T11:13:54.126Z,3308.00
2018-09-27T11:14:54.136Z,3020.00
2018-09-27T11:15:54.169Z,2684.00
2018-09-27T11:16:54.172Z,2748.00
2018-09-27T11:17:54.212Z,2880.00
2018-09-27T11:18:54.217Z,2672.00
2018-09-27T11:19:54.240Z,2608.00
2018-09-27T11:20:54.374Z,2580.00
2018-09-27T11:21:54.344Z,2564.00
2018-09-27T11:22:54.301Z,2564.00
2018-09-27T11:23:54.325Z,2780.00
2018-09-27T11:24:54.357Z,3100.00
2018-09-27T11:25:54.364Z,3556.00
2018-09-27T11:26:54.391Z,4072.00
2018-09-27T11:27:54.414Z,4608.00
2018-09-27T11:28:54.489Z,5048.00
2018-09-27T11:29:54.461Z,5336.00
2018-09-27T11:30:54.473Z,5520.00
2018-09-27T11:31:54.546Z,5724.00
2018-09-27T11:32:54.571Z,5924.00
2018-09-27T11:33:54.558Z,5984.00
2018-09-27T11:34:54.568Z,6228.00
2018-09-27T11:35:54.591Z,6328.00
2018-09-27T11:36:54.618Z,6304.00
2018-09-27T11:37:54.637Z,6200.00
2018-09-27T11:38:54.658Z,6044.00
2018-09-27T11:39:54.680Z,5900.00
2018-09-27T11:40:54.705Z,5760.00
2018-09-27T11:41:54.767Z,5656.00
2018-09-27T11:42:54.904Z,5568.00
2018-09-27T11:43:54.825Z,5404.00
2018-09-27T11:44:54.809Z,5220.00
2018-09-27T11:45:54.817Z,5064.00
2018-09-27T11:46:54.852Z,4876.00
2018-09-27T11:47:54.887Z,4444.00
2018-09-27T11:48:54.943Z,4160.00
2018-09-27T11:49:55.013Z,3568.00
2018-09-27T11:50:54.935Z,5232.00
2018-09-27T11:51:54.962Z,10952.00
2018-09-27T11:52:54.984Z,20224.00
2018-09-27T11:53:55.007Z,17824.00
2018-09-27T11:54:55.093Z,10616.00
2018-09-27T11:55:55.111Z,6280.00
2018-09-27T11:56:55.080Z,5180.00
2018-09-27T11:57:55.120Z,3928.00
2018-09-27T11:58:55.172Z,2296.00
2018-09-27T11:59:55.157Z,2948.00
2018-09-27T12:00:55.181Z,2852.00
2018-09-27T12:01:55.202Z,1896.00
2018-09-27T12:02:55.226Z,1716.00
2018-09-27T12:03:55.262Z,1692.00
2018-09-27T12:04:55.279Z,1652.00
2018-09-27T12:05:55.328Z,1556.00
2018-09-27T12:06:55.391Z,1832.00
2018-09-27T12:07:55.344Z,2024.00
2018-09-27T12:08:55.364Z,3008.00
2018-09-27T12:09:55.399Z,3888.00
2018-09-27T12:10:55.416Z,5620.00
2018-09-27T12:11:55.508Z,5072.00
2018-09-27T12:12:55.484Z,7448.00
2018-09-27T12:13:55.491Z,12864.00
2018-09-27T12:14:55.518Z,18880.00
2018-09-27T12:15:55.528Z,25984.00
2018-09-27T12:16:55.553Z,27136.00
2018-09-27T12:17:55.636Z,12152.00
2018-09-27T12:18:55.598Z,7636.00
2018-09-27T12:19:55.745Z,5192.00
2018-09-27T12:20:55.663Z,1224.00
2018-09-27T12:21:55.679Z,1004.00
2018-09-27T12:22:55.739Z,912.00
2018-09-27T12:23:55.720Z,876.00
2018-09-27T12:24:55.764Z,872.00
2018-09-27T12:25:55.770Z,836.00
2018-09-27T12:27:55.816Z,772.00
2018-09-27T12:28:55.837Z,744.00
2018-09-27T12:29:55.869Z,724.00
2018-09-27T12:30:55.935Z,704.00
2018-09-27T12:31:55.906Z,696.00
2018-09-27T12:32:55.929Z,664.00
2018-09-27T12:33:55.963Z,660.00
2018-09-27T12:34:56.006Z,668.00
2018-09-27T12:35:56.019Z,672.00
2018-09-27T12:36:56.032Z,656.00
2018-09-27T12:37:56.060Z,624.00
2018-09-27T12:38:56.152Z,592.00
2018-09-27T12:39:56.095Z,588.00
2018-09-27T12:40:56.118Z,588.00
2018-09-27T12:41:56.331Z,588.00
2018-09-27T12:42:56.235Z,540.00
2018-09-27T12:43:56.194Z,508.00
2018-09-27T12:44:56.221Z,500.00
2018-09-27T12:45:56.268Z,452.00
2018-09-27T12:46:56.315Z,436.00
2018-09-27T12:47:56.322Z,416.00
2018-09-27T12:48:56.432Z,408.00